Time;durP1;ratioP1;P1;durP2;ratioP2;P2;SDS_P1;SDS_P2;PMS_P1;PMS_P2;Temp;Humidity;BMP_temperature;BMP_pressure;BME280_temperature;BME280_humidity;BME280_pressure;Samples;Min_cycle;Max_cycle;Signal;HPM_P1;HPM_P2
2023/06/27 00:00:11;;;;;;;;;;;22.70;89.70;22.80;99967.00;;;;341429;28;95647;-94
2023/06/27 00:00:23;;;;;;;;;;;22.70;89.70;22.80;99959.00;;;;342182;28;82331;-93
2023/06/27 00:00:35;;;;;;;;;;;22.70;89.70;22.80;99967.00;;;;342732;28;96869;-94
2023/06/27 00:00:47;;;;;;;;;;;22.70;89.70;22.80;99962.00;;;;344877;28;83608;-94
2023/06/27 00:00:59;;;;;;;;;;;22.70;89.90;22.80;99959.00;;;;342449;28;95570;-94
2023/06/27 00:01:11;;;;;;;;;;;22.70;90.00;22.80;99963.00;;;;342166;28;82249;-94
2023/06/27 00:01:23;;;;;;;;;;;22.70;90.00;22.80;99967.00;;;;341447;28;96015;-95
2023/06/27 00:01:39;;;;;;;;;;;22.70;90.00;22.80;99968.00;;;;343535;28;83538;-94
2023/06/27 00:01:51;;;;;;;;;;;22.70;90.00;22.80;99959.00;;;;342747;28;97099;-94
2023/06/27 00:02:03;;;;;;;;;;;22.70;89.80;22.80;99962.00;;;;343567;28;82343;-94
2023/06/27 00:02:15;;;;;;;;;;;22.70;89.80;22.80;99964.00;;;;341258;28;97171;-94
2023/06/27 00:02:27;;;;;;;;;;;22.80;89.90;22.70;99967.00;;;;340814;28;83407;-94
2023/06/27 00:02:40;;;;;;;;;;;22.70;89.70;22.80;99962.00;;;;341377;28;96109;-94
2023/06/27 00:02:53;;;;;;;;;;;22.80;89.70;22.80;99961.00;;;;340815;28;83344;-94
2023/06/27 00:03:05;;;;;;;;;;;22.70;89.80;22.80;99964.00;;;;340019;28;95429;-94
2023/06/27 00:03:18;;;;;;;;;;;22.80;89.90;22.80;99967.00;;;;341986;28;82630;-94
2023/06/27 00:03:33;;;;;;;;;;;22.70;89.70;22.70;99969.00;;;;344047;28;96448;-94
2023/06/27 00:03:45;;;;;;;;;;;22.70;89.60;22.70;99960.00;;;;342202;28;82240;-94
2023/06/27 00:04:00;;;;;;;;;;;22.70;89.60;22.70;99964.00;;;;344057;28;96906;-94
2023/06/27 00:04:13;;;;;;;;;;;22.70;89.70;22.60;99960.00;;;;344868;28;82421;-93
2023/06/27 00:04:25;;;;;;;;;;;22.70;89.50;22.70;99962.00;;;;338668;28;95448;-94
2023/06/27 00:04:36;;;;;;;;;;;22.70;89.10;22.60;99964.00;;;;343473;28;83448;-94
2023/06/27 00:04:48;;;;;;;;;;;22.70;89.00;22.60;99962.00;;;;344205;28;95473;-94
2023/06/27 00:05:00;;;;;;;;;;;22.70;89.00;22.70;99962.00;;;;343505;28;83364;-94
2023/06/27 00:05:13;;;;;;;;;;;22.70;89.10;22.70;99952.00;;;;344089;28;96891;-93
2023/06/27 00:05:25;;;;;;;;;;;22.70;89.50;22.70;99959.00;;;;343498;28;83496;-94
2023/06/27 00:05:37;;;;;;;;;;;22.70;89.50;22.70;99967.00;;;;340013;28;94226;-94
2023/06/27 00:05:51;;;;;;;;;;;22.60;89.40;22.70;99967.00;;;;343462;28;83530;-94
2023/06/27 00:06:04;;;;;;;;;;;22.70;89.50;22.70;99965.00;;;;342549;28;95181;-94
2023/06/27 00:06:19;;;;;;;;;;;22.60;89.30;22.70;99968.00;;;;340745;28;82462;-94
2023/06/27 00:06:31;;;;;;;;;;;22.70;89.50;22.70;99963.00;;;;341441;28;95975;-94
2023/06/27 00:06:43;;;;;;;;;;;22.70;89.50;22.70;99957.00;;;;342168;28;82664;-93
2023/06/27 00:06:55;;;;;;;;;;;22.60;89.30;22.60;99960.00;;;;340013;28;95805;-94
2023/06/27 00:07:10;;;;;;;;;;;22.70;89.40;22.60;99952.00;;;;343549;28;83438;-94
2023/06/27 00:07:27;;;;;;;;;;;22.70;89.40;22.60;99963.00;;;;343946;28;96607;-94
2023/06/27 00:07:41;;;;;;;;;;;22.60;89.40;22.60;99964.00;;;;343361;28;82404;-93
2023/06/27 00:07:53;;;;;;;;;;;22.60;89.40;22.60;99963.00;;;;341472;28;95261;-93
2023/06/27 00:08:06;;;;;;;;;;;22.60;89.30;22.60;99960.00;;;;340830;28;83443;-94
2023/06/27 00:08:18;;;;;;;;;;;22.60;89.10;22.70;99964.00;;;;340033;28;96893;-94
2023/06/27 00:08:31;;;;;;;;;;;22.60;88.80;22.70;99959.00;;;;342144;28;83501;-93
2023/06/27 00:08:45;;;;;;;;;;;22.60;88.80;22.70;99964.00;;;;342701;28;96454;-94
2023/06/27 00:08:57;;;;;;;;;;;22.60;88.70;22.60;99962.00;;;;343453;28;82474;-93
2023/06/27 00:09:12;;;;;;;;;;;22.60;88.70;22.60;99961.00;;;;339995;28;95130;-93
2023/06/27 00:09:24;;;;;;;;;;;22.60;88.90;22.70;99958.00;;;;342217;28;82498;-94
2023/06/27 00:09:36;;;;;;;;;;;22.60;89.00;22.70;99970.00;;;;342657;28;96446;-94
2023/06/27 00:09:48;;;;;;;;;;;22.60;89.10;22.60;99966.00;;;;344907;28;82526;-93
2023/06/27 00:10:00;;;;;;;;;;;22.60;89.10;22.60;99962.00;;;;345560;28;94889;-93
2023/06/27 00:10:12;;;;;;;;;;;22.60;89.30;22.60;99965.00;;;;343322;28;83494;-94
2023/06/27 00:10:23;;;;;;;;;;;22.60;89.40;22.60;99960.00;;;;342671;28;97040;-93
2023/06/27 00:10:35;;;;;;;;;;;22.60;89.40;22.50;99960.00;;;;342125;28;83440;-93
2023/06/27 00:10:47;;;;;;;;;;;22.60;89.50;22.60;99959.00;;;;340352;28;96572;-93
2023/06/27 00:11:00;;;;;;;;;;;22.60;89.40;22.50;99958.00;;;;340841;28;83393;-94
2023/06/27 00:11:11;;;;;;;;;;;22.60;89.30;22.50;99967.00;;;;342775;28;94868;-93
2023/06/27 00:11:23;;;;;;;;;;;22.60;89.30;22.60;99964.00;;;;342110;28;83441;-94
2023/06/27 00:11:39;;;;;;;;;;;22.60;89.50;22.60;99964.00;;;;341291;28;97075;-93
2023/06/27 00:11:51;;;;;;;;;;;22.60;89.40;22.60;99969.00;;;;343491;28;83532;-93
2023/06/27 00:12:03;;;;;;;;;;;22.50;89.20;22.60;99962.00;;;;344214;28;92986;-93
2023/06/27 00:12:15;;;;;;;;;;;22.50;89.30;22.60;99959.00;;;;343162;28;83621;-93
2023/06/27 00:12:30;;;;;;;;;;;22.60;89.30;22.60;99965.00;;;;342506;28;95658;-93
2023/06/27 00:12:44;;;;;;;;;;;22.50;89.20;22.60;99970.00;;;;343527;28;82552;-93
2023/06/27 00:12:56;;;;;;;;;;;22.60;89.50;22.50;99961.00;;;;341341;28;96297;-93
2023/06/27 00:13:15;;;;;;;;;;;22.50;89.20;22.50;99960.00;;;;343504;28;82562;-94
2023/06/27 00:13:28;;;;;;;;;;;22.50;89.20;22.60;99960.00;;;;344153;28;95604;-93
2023/06/27 00:13:41;;;;;;;;;;;22.50;89.30;22.60;99964.00;;;;340750;28;82543;-93
2023/06/27 00:13:53;;;;;;;;;;;22.50;89.30;22.60;99967.00;;;;345519;28;96892;-94
2023/06/27 00:14:07;;;;;;;;;;;22.50;89.30;22.50;99958.00;;;;346247;28;83340;-93
2023/06/27 00:14:19;;;;;;;;;;;22.50;89.30;22.50;99962.00;;;;344023;28;96089;-93
2023/06/27 00:14:36;;;;;;;;;;;22.50;89.10;22.50;99961.00;;;;343460;28;83520;-93
2023/06/27 00:14:48;;;;;;;;;;;22.50;89.20;22.60;99964.00;;;;342806;28;95866;-94
2023/06/27 00:15:00;;;;;;;;;;;22.50;89.30;22.60;99964.00;;;;343393;28;83588;-94
2023/06/27 00:15:12;;;;;;;;;;;22.50;89.30;22.50;99967.00;;;;342725;28;96988;-94
2023/06/27 00:15:24;;;;;;;;;;;22.50;89.40;22.60;99962.00;;;;343539;28;82463;-93
2023/06/27 00:15:36;;;;;;;;;;;22.50;89.30;22.60;99964.00;;;;342830;28;95200;-93
2023/06/27 00:15:52;;;;;;;;;;;22.50;89.10;22.60;99966.00;;;;340742;28;83454;-93
2023/06/27 00:16:06;;;;;;;;;;;22.50;89.00;22.50;99967.00;;;;342779;28;95549;-93
2023/06/27 00:16:18;;;;;;;;;;;22.50;89.00;22.30;99965.00;;;;343751;28;83496;-93
2023/06/27 00:16:35;;;;;;;;;;;22.50;88.80;22.40;99964.00;;;;344300;28;96137;-93
2023/06/27 00:16:47;;;;;;;;;;;22.50;88.80;22.40;99960.00;;;;343475;28;82491;-93
2023/06/27 00:17:00;;;;;;;;;;;22.50;89.00;22.40;99958.00;;;;342589;28;97028;-93
2023/06/27 00:17:12;;;;;;;;;;;22.40;89.00;22.40;99965.00;;;;342139;28;82420;-94
2023/06/27 00:17:24;;;;;;;;;;;22.40;88.90;22.30;99956.00;;;;342678;28;96547;-94
2023/06/27 00:17:37;;;;;;;;;;;22.40;89.00;22.40;99956.00;;;;344799;28;82323;-93
2023/06/27 00:17:51;;;;;;;;;;;22.40;89.00;22.40;99945.00;;;;339952;28;96838;-93
2023/06/27 00:18:07;;;;;;;;;;;22.40;88.90;22.40;99961.00;;;;341980;28;82574;-93
2023/06/27 00:18:21;;;;;;;;;;;22.40;89.00;22.40;99962.00;;;;342659;28;95709;-94
2023/06/27 00:18:34;;;;;;;;;;;22.40;89.00;22.40;99964.00;;;;343252;28;82586;-93
2023/06/27 00:18:50;;;;;;;;;;;22.40;89.20;22.40;99961.00;;;;340107;28;95872;-93
2023/06/27 00:19:03;;;;;;;;;;;22.40;89.20;22.40;99960.00;;;;343430;28;83468;-93
2023/06/27 00:19:15;;;;;;;;;;;22.40;89.10;22.40;99957.00;;;;342431;28;95080;-93
2023/06/27 00:19:28;;;;;;;;;;;22.40;89.10;22.40;99961.00;;;;344829;28;82551;-93
2023/06/27 00:19:40;;;;;;;;;;;22.40;89.00;22.40;99962.00;;;;342682;28;96793;-93
2023/06/27 00:19:57;;;;;;;;;;;22.40;89.00;22.40;99965.00;;;;342072;28;82426;-93
2023/06/27 00:20:11;;;;;;;;;;;22.40;89.30;22.50;99963.00;;;;342618;28;94612;-94
2023/06/27 00:20:23;;;;;;;;;;;22.40;89.30;22.50;99964.00;;;;340566;28;83485;-93
2023/06/27 00:20:35;;;;;;;;;;;22.40;89.30;22.40;99959.00;;;;341132;28;95767;-93
2023/06/27 00:20:50;;;;;;;;;;;22.40;89.60;22.40;99961.00;;;;340867;28;83299;-93
2023/06/27 00:21:02;;;;;;;;;;;22.40;89.50;22.50;99966.00;;;;340026;28;95442;-94
2023/06/27 00:21:15;;;;;;;;;;;22.40;89.40;22.50;99966.00;;;;343249;28;83470;-92
2023/06/27 00:21:28;;;;;;;;;;;22.40;89.40;22.50;99957.00;;;;340077;28;95345;-93
2023/06/27 00:21:40;;;;;;;;;;;22.40;89.30;22.40;99958.00;;;;343436;28;83424;-93
2023/06/27 00:21:52;;;;;;;;;;;22.40;89.10;22.40;99955.00;;;;342419;28;95611;-94
2023/06/27 00:22:09;;;;;;;;;;;22.40;89.00;22.50;99964.00;;;;344906;28;83410;-93
2023/06/27 00:22:21;;;;;;;;;;;22.40;88.90;22.40;99955.00;;;;342802;28;96268;-94
2023/06/27 00:22:33;;;;;;;;;;;22.40;88.80;22.50;99956.00;;;;343593;28;83400;-93
2023/06/27 00:22:47;;;;;;;;;;;22.40;88.70;22.40;99960.00;;;;342755;28;95593;-94
2023/06/27 00:23:18;;;;;;;;;;;22.40;88.80;22.40;99962.00;;;;344806;28;83619;-93
2023/06/27 00:23:33;;;;;;;;;;;22.40;88.90;22.40;99961.00;;;;345582;28;95454;-93
2023/06/27 00:23:47;;;;;;;;;;;22.40;88.70;22.40;99958.00;;;;344902;28;83397;-93
2023/06/27 00:23:59;;;;;;;;;;;22.40;88.70;22.40;99968.00;;;;344080;28;96522;-93
2023/06/27 00:24:11;;;;;;;;;;;22.40;89.00;22.40;99966.00;;;;339319;28;82599;-93
2023/06/27 00:24:23;;;;;;;;;;;22.40;89.00;22.40;99962.00;;;;341236;28;97117;-93
2023/06/27 00:24:35;;;;;;;;;;;22.40;89.00;22.40;99959.00;;;;344925;28;83478;-93
2023/06/27 00:24:47;;;;;;;;;;;22.40;88.80;22.40;99960.00;;;;342768;28;96431;-93
2023/06/27 00:24:59;;;;;;;;;;;22.40;88.60;22.40;99951.00;;;;341961;28;83509;-93
2023/06/27 00:25:11;;;;;;;;;;;22.40;88.70;22.40;99955.00;;;;341135;28;94560;-93
2023/06/27 00:25:23;;;;;;;;;;;22.40;88.70;22.30;99961.00;;;;343527;28;83424;-93
2023/06/27 00:25:35;;;;;;;;;;;22.40;88.70;22.30;99958.00;;;;342580;28;93854;-93
2023/06/27 00:25:47;;;;;;;;;;;22.40;88.50;22.30;99960.00;;;;343526;28;82564;-93
2023/06/27 00:26:00;;;;;;;;;;;22.30;88.20;22.30;99956.00;;;;342695;28;96786;-93
2023/06/27 00:26:12;;;;;;;;;;;22.30;88.30;22.40;99962.00;;;;342122;28;83164;-94
2023/06/27 00:26:24;;;;;;;;;;;22.30;88.30;22.30;99956.00;;;;341327;28;95899;-94
2023/06/27 00:26:36;;;;;;;;;;;22.30;88.40;22.30;99946.00;;;;343454;28;83475;-93
2023/06/27 00:26:47;;;;;;;;;;;22.30;88.60;22.40;99959.00;;;;340085;28;96436;-94
2023/06/27 00:26:59;;;;;;;;;;;22.30;88.60;22.40;99964.00;;;;340718;28;82503;-93
2023/06/27 00:27:11;;;;;;;;;;;22.30;88.60;22.40;99955.00;;;;340067;28;95986;-93
2023/06/27 00:27:23;;;;;;;;;;;22.30;88.70;22.40;99951.00;;;;340770;28;82569;-92
2023/06/27 00:27:35;;;;;;;;;;;22.30;88.60;22.40;99955.00;;;;341401;28;94906;-93
2023/06/27 00:27:47;;;;;;;;;;;22.30;88.40;22.40;99953.00;;;;340783;28;82465;-94
2023/06/27 00:27:58;;;;;;;;;;;22.30;88.30;22.40;99957.00;;;;341092;28;95805;-93
2023/06/27 00:28:10;;;;;;;;;;;22.30;88.40;22.30;99959.00;;;;343493;28;82470;-93
2023/06/27 00:28:22;;;;;;;;;;;22.30;88.50;22.30;99964.00;;;;343948;28;96900;-94
2023/06/27 00:28:34;;;;;;;;;;;22.30;88.30;22.30;99955.00;;;;343556;28;83460;-94
2023/06/27 00:28:46;;;;;;;;;;;22.30;88.20;22.30;99951.00;;;;338715;28;96778;-93
2023/06/27 00:28:58;;;;;;;;;;;22.30;88.40;22.30;99948.00;;;;342093;28;83504;-93
2023/06/27 00:29:09;;;;;;;;;;;22.30;88.40;22.40;99942.00;;;;341317;28;95230;-93
2023/06/27 00:29:21;;;;;;;;;;;22.30;88.20;22.30;99962.00;;;;340785;28;83370;-93
2023/06/27 00:29:33;;;;;;;;;;;22.30;88.20;22.30;99960.00;;;;341275;28;95678;-93
2023/06/27 00:29:45;;;;;;;;;;;22.30;88.20;22.30;99957.00;;;;342133;28;83551;-93
2023/06/27 00:29:57;;;;;;;;;;;22.30;88.20;22.30;99953.00;;;;341277;28;95770;-94
2023/06/27 00:30:09;;;;;;;;;;;22.30;88.30;22.30;99956.00;;;;342156;28;83236;-93
2023/06/27 00:30:22;;;;;;;;;;;22.30;88.30;22.30;99959.00;;;;342704;28;94737;-93
2023/06/27 00:30:34;;;;;;;;;;;22.30;88.30;22.20;99959.00;;;;340779;28;83432;-94
2023/06/27 00:30:46;;;;;;;;;;;22.30;88.60;22.30;99958.00;;;;342786;28;95894;-94
2023/06/27 00:30:58;;;;;;;;;;;22.30;88.60;22.30;99962.00;;;;344808;28;82507;-93
2023/06/27 00:31:10;;;;;;;;;;;22.30;88.50;22.30;99955.00;;;;341320;28;96681;-93
2023/06/27 00:31:22;;;;;;;;;;;22.30;88.50;22.40;99959.00;;;;342168;28;82573;-94
2023/06/27 00:31:34;;;;;;;;;;;22.30;88.50;22.40;99959.00;;;;340054;28;95284;-93
2023/06/27 00:31:46;;;;;;;;;;;22.30;88.50;22.40;99957.00;;;;339525;28;82446;-94
2023/06/27 00:31:58;;;;;;;;;;;22.30;88.40;22.40;99960.00;;;;341421;28;93780;-93
2023/06/27 00:32:10;;;;;;;;;;;22.30;88.40;22.30;99962.00;;;;340839;28;83420;-93
2023/06/27 00:32:22;;;;;;;;;;;22.30;88.50;22.30;99959.00;;;;342379;28;94232;-93
2023/06/27 00:32:34;;;;;;;;;;;22.30;88.50;22.30;99959.00;;;;343535;28;82312;-94
2023/06/27 00:32:46;;;;;;;;;;;22.30;88.50;22.30;99960.00;;;;344164;28;94354;-94
2023/06/27 00:32:58;;;;;;;;;;;22.30;88.60;22.30;99950.00;;;;339173;28;83457;-93
2023/06/27 00:33:10;;;;;;;;;;;22.30;88.50;22.20;99958.00;;;;342767;28;96736;-93
2023/06/27 00:33:22;;;;;;;;;;;22.30;88.30;22.30;99957.00;;;;344893;28;83387;-94
2023/06/27 00:33:34;;;;;;;;;;;22.30;88.20;22.30;99966.00;;;;342719;28;95600;-93
2023/06/27 00:33:46;;;;;;;;;;;22.30;88.40;22.30;99959.00;;;;343609;28;82553;-93
2023/06/27 00:33:58;;;;;;;;;;;22.30;88.40;22.30;99957.00;;;;339902;28;97057;-94
2023/06/27 00:34:10;;;;;;;;;;;22.20;88.30;22.20;99965.00;;;;339516;28;82568;-93
2023/06/27 00:34:21;;;;;;;;;;;22.30;88.30;22.10;99960.00;;;;339859;28;95608;-93
2023/06/27 00:34:33;;;;;;;;;;;22.20;88.20;22.20;99964.00;;;;340790;28;83414;-93
2023/06/27 00:34:45;;;;;;;;;;;22.20;88.10;22.20;99964.00;;;;338610;28;96663;-93
2023/06/27 00:34:57;;;;;;;;;;;22.20;88.10;22.30;99957.00;;;;342053;28;83364;-93
2023/06/27 00:35:09;;;;;;;;;;;22.20;88.20;22.20;99956.00;;;;342711;28;95892;-93
2023/06/27 00:35:20;;;;;;;;;;;22.20;88.50;22.20;99957.00;;;;342155;28;82439;-94
2023/06/27 00:35:32;;;;;;;;;;;22.20;88.20;22.20;99967.00;;;;340089;28;95205;-93
2023/06/27 00:35:44;;;;;;;;;;;22.20;88.20;22.20;99962.00;;;;340727;28;83447;-93
2023/06/27 00:35:57;;;;;;;;;;;22.20;88.20;22.20;99955.00;;;;338656;28;96689;-94
2023/06/27 00:36:09;;;;;;;;;;;22.20;88.40;22.20;99967.00;;;;340811;28;83465;-94
2023/06/27 00:36:21;;;;;;;;;;;22.20;88.40;22.10;99967.00;;;;340016;28;96352;-93
2023/06/27 00:36:33;;;;;;;;;;;22.20;88.00;22.10;99961.00;;;;342177;28;83442;-93
2023/06/27 00:36:45;;;;;;;;;;;22.20;88.20;22.10;99964.00;;;;343990;28;95787;-93
2023/06/27 00:36:57;;;;;;;;;;;22.20;88.20;22.10;99961.00;;;;342057;28;83293;-93
2023/06/27 00:37:09;;;;;;;;;;;22.20;88.30;22.10;99959.00;;;;342699;28;96461;-93
2023/06/27 00:37:20;;;;;;;;;;;22.10;88.20;22.10;99966.00;;;;343494;28;83381;-93
2023/06/27 00:37:32;;;;;;;;;;;22.10;88.00;22.10;99956.00;;;;341473;28;94434;-93
2023/06/27 00:37:44;;;;;;;;;;;22.10;87.90;22.20;99959.00;;;;340671;28;83564;-93
2023/06/27 00:37:56;;;;;;;;;;;22.10;88.00;22.20;99960.00;;;;342688;28;96786;-93
2023/06/27 00:38:08;;;;;;;;;;;22.20;88.10;22.20;99961.00;;;;342111;28;82468;-93
2023/06/27 00:38:19;;;;;;;;;;;22.20;88.20;22.20;99956.00;;;;337306;28;96097;-94
2023/06/27 00:38:31;;;;;;;;;;;22.10;88.10;22.20;99963.00;;;;342147;28;83424;-94
2023/06/27 00:38:43;;;;;;;;;;;22.10;88.20;22.20;99963.00;;;;341354;28;95276;-93
2023/06/27 00:38:55;;;;;;;;;;;22.10;88.30;22.20;99959.00;;;;338123;28;82490;-94
2023/06/27 00:39:07;;;;;;;;;;;22.10;88.20;22.10;99957.00;;;;341348;28;94109;-93
2023/06/27 00:39:19;;;;;;;;;;;22.10;88.20;22.00;99964.00;;;;343538;28;82448;-93
2023/06/27 00:39:31;;;;;;;;;;;22.10;88.10;22.00;99956.00;;;;341392;28;96095;-93
2023/06/27 00:39:43;;;;;;;;;;;22.10;88.10;22.10;99958.00;;;;341911;28;83516;-93
2023/06/27 00:39:55;;;;;;;;;;;22.10;88.10;22.10;99956.00;;;;341389;28;97016;-93
2023/06/27 00:40:08;;;;;;;;;;;22.10;88.30;22.10;99959.00;;;;340769;28;83398;-94
2023/06/27 00:40:20;;;;;;;;;;;22.10;88.40;22.10;99958.00;;;;338637;28;96477;-94
2023/06/27 00:40:32;;;;;;;;;;;22.10;88.30;22.10;99955.00;;;;342166;28;83408;-93
2023/06/27 00:40:44;;;;;;;;;;;22.10;88.30;22.10;99960.00;;;;340003;28;95343;-93
2023/06/27 00:40:55;;;;;;;;;;;22.10;88.30;22.10;99963.00;;;;343444;28;83378;-93
2023/06/27 00:41:07;;;;;;;;;;;22.10;88.20;22.10;99958.00;;;;342781;28;95287;-93
2023/06/27 00:41:19;;;;;;;;;;;22.10;88.20;22.10;99963.00;;;;339596;28;83387;-94
2023/06/27 00:41:31;;;;;;;;;;;22.10;88.30;22.10;99960.00;;;;338771;28;94920;-93
2023/06/27 00:41:43;;;;;;;;;;;22.10;88.30;22.10;99964.00;;;;340664;28;83409;-93
2023/06/27 00:41:55;;;;;;;;;;;22.10;88.40;22.00;99963.00;;;;341438;28;95559;-93
2023/06/27 00:42:06;;;;;;;;;;;22.10;88.20;22.00;99964.00;;;;340774;28;83297;-93
2023/06/27 00:42:18;;;;;;;;;;;22.10;88.20;22.00;99967.00;;;;342613;28;97152;-93
2023/06/27 00:42:30;;;;;;;;;;;22.10;88.10;22.00;99959.00;;;;340891;28;82417;-93
2023/06/27 00:42:42;;;;;;;;;;;22.10;88.40;22.00;99959.00;;;;340026;28;96761;-93
2023/06/27 00:42:54;;;;;;;;;;;22.10;88.20;22.10;99965.00;;;;342111;28;82685;-93
2023/06/27 00:43:06;;;;;;;;;;;22.10;88.20;22.10;99963.00;;;;340003;28;95802;-93
2023/06/27 00:43:18;;;;;;;;;;;22.10;88.20;22.10;99954.00;;;;342056;28;83012;-94
2023/06/27 00:43:30;;;;;;;;;;;22.10;88.20;22.10;99962.00;;;;340045;28;96231;-93
2023/06/27 00:43:42;;;;;;;;;;;22.10;88.20;22.10;99962.00;;;;342053;28;83429;-93
2023/06/27 00:43:56;;;;;;;;;;;22.10;88.10;22.00;99953.00;;;;341341;28;95966;-93
2023/06/27 00:44:08;;;;;;;;;;;22.10;88.10;22.10;99964.00;;;;340758;28;83483;-93
2023/06/27 00:44:20;;;;;;;;;;;22.10;88.20;22.10;99957.00;;;;341256;28;96721;-93
2023/06/27 00:44:32;;;;;;;;;;;22.00;88.10;22.00;99963.00;;;;343527;28;83370;-93
2023/06/27 00:44:44;;;;;;;;;;;22.00;88.10;22.00;99959.00;;;;340008;28;96389;-92
2023/06/27 00:44:56;;;;;;;;;;;22.00;88.10;22.00;99959.00;;;;339363;28;83407;-93
2023/06/27 00:45:08;;;;;;;;;;;22.00;88.30;22.10;99967.00;;;;341176;28;96376;-93
2023/06/27 00:45:22;;;;;;;;;;;22.00;88.20;22.00;99963.00;;;;342134;28;83506;-93
2023/06/27 00:45:34;;;;;;;;;;;22.00;88.20;22.00;99967.00;;;;339989;28;96165;-93
2023/06/27 00:45:46;;;;;;;;;;;22.00;88.20;21.90;99960.00;;;;342080;28;82537;-93
2023/06/27 00:45:58;;;;;;;;;;;22.00;88.30;22.00;99966.00;;;;340009;28;95459;-93
2023/06/27 00:46:10;;;;;;;;;;;22.00;88.30;22.00;99960.00;;;;339434;28;83478;-93
2023/06/27 00:46:34;;;;;;;;;;;22.00;88.50;22.00;99965.00;;;;338683;28;94650;-93
2023/06/27 00:46:48;;;;;;;;;;;22.00;88.60;22.00;99960.00;;;;340789;28;82486;-94
2023/06/27 00:47:00;;;;;;;;;;;22.00;88.30;22.00;99965.00;;;;339947;28;95791;-93
2023/06/27 00:47:11;;;;;;;;;;;22.00;88.30;22.10;99964.00;;;;342156;28;83379;-93
2023/06/27 00:47:23;;;;;;;;;;;22.00;88.20;22.00;99963.00;;;;341091;28;95492;-93
2023/06/27 00:47:35;;;;;;;;;;;22.00;88.20;22.00;99963.00;;;;342103;28;82492;-93
2023/06/27 00:47:47;;;;;;;;;;;22.00;88.80;22.00;99962.00;;;;340063;28;94746;-93
2023/06/27 00:48:00;;;;;;;;;;;22.00;88.20;21.90;99946.00;;;;340768;28;82357;-93
2023/06/27 00:48:13;;;;;;;;;;;21.90;88.00;21.90;99951.00;;;;341315;28;95787;-93
2023/06/27 00:48:24;;;;;;;;;;;21.90;87.90;21.90;99952.00;;;;342123;28;82276;-93
2023/06/27 00:48:36;;;;;;;;;;;21.90;88.00;21.80;99959.00;;;;341376;28;94950;-94
2023/06/27 00:48:49;;;;;;;;;;;21.90;88.00;21.90;99958.00;;;;342165;28;82466;-93
2023/06/27 00:49:01;;;;;;;;;;;21.90;88.00;21.90;99954.00;;;;342736;28;93382;-93
2023/06/27 00:49:13;;;;;;;;;;;21.90;88.10;22.00;99961.00;;;;339437;28;83290;-93
2023/06/27 00:49:25;;;;;;;;;;;21.90;88.10;22.00;99958.00;;;;338655;28;96907;-93
2023/06/27 00:49:36;;;;;;;;;;;21.90;88.10;22.00;99959.00;;;;340766;28;82533;-93
2023/06/27 00:49:48;;;;;;;;;;;21.90;88.20;21.90;99959.00;;;;340093;28;94846;-93
2023/06/27 00:50:00;;;;;;;;;;;21.90;88.20;22.00;99961.00;;;;340741;28;83353;-93
2023/06/27 00:50:12;;;;;;;;;;;21.90;88.30;22.00;99960.00;;;;338625;28;95797;-93
2023/06/27 00:50:26;;;;;;;;;;;21.90;88.60;22.00;99956.00;;;;343242;28;83486;-93
2023/06/27 00:50:38;;;;;;;;;;;21.90;88.70;22.00;99957.00;;;;342700;28;96271;-93
2023/06/27 00:50:50;;;;;;;;;;;21.90;88.60;22.00;99959.00;;;;342037;28;83418;-93
2023/06/27 00:51:03;;;;;;;;;;;21.90;88.50;22.00;99954.00;;;;342617;28;96727;-93
2023/06/27 00:51:15;;;;;;;;;;;21.90;88.40;22.00;99951.00;;;;340604;28;82411;-93
2023/06/27 00:51:27;;;;;;;;;;;21.90;88.40;22.00;99949.00;;;;342454;28;96874;-93
2023/06/27 00:51:40;;;;;;;;;;;21.90;88.30;22.10;99963.00;;;;342155;28;82508;-93
2023/06/27 00:51:52;;;;;;;;;;;21.90;88.40;22.00;99955.00;;;;342547;28;93854;-94
2023/06/27 00:52:05;;;;;;;;;;;21.90;88.50;22.00;99966.00;;;;342209;28;82441;-94
2023/06/27 00:52:16;;;;;;;;;;;21.90;88.40;22.10;99962.00;;;;339943;28;95404;-94
2023/06/27 00:52:28;;;;;;;;;;;21.90;88.70;21.90;99952.00;;;;339461;28;82456;-94
2023/06/27 00:52:40;;;;;;;;;;;21.90;88.40;21.90;99957.00;;;;341345;28;96984;-93
2023/06/27 00:52:52;;;;;;;;;;;21.90;88.40;22.00;99955.00;;;;343432;28;82460;-94
2023/06/27 00:53:04;;;;;;;;;;;21.90;88.50;22.00;99958.00;;;;341280;28;95258;-94
2023/06/27 00:53:16;;;;;;;;;;;21.90;88.40;22.00;99959.00;;;;343111;28;82517;-93
2023/06/27 00:53:27;;;;;;;;;;;21.90;88.30;21.90;99952.00;;;;341091;28;95201;-93
2023/06/27 00:53:39;;;;;;;;;;;21.90;88.20;21.90;99955.00;;;;341931;28;83480;-93
2023/06/27 00:53:51;;;;;;;;;;;21.90;88.20;21.90;99957.00;;;;341395;28;94810;-94
2023/06/27 00:54:03;;;;;;;;;;;21.90;88.00;21.80;99952.00;;;;342218;28;82424;-94
2023/06/27 00:54:16;;;;;;;;;;;21.90;87.90;21.80;99953.00;;;;341359;28;96034;-93
2023/06/27 00:54:27;;;;;;;;;;;21.90;88.00;21.90;99958.00;;;;343449;28;83220;-94
2023/06/27 00:54:39;;;;;;;;;;;21.80;88.00;21.90;99955.00;;;;341330;28;96441;-93
2023/06/27 00:54:51;;;;;;;;;;;21.80;88.10;21.90;99958.00;;;;342076;28;83348;-93
2023/06/27 00:55:04;;;;;;;;;;;21.80;88.30;21.90;99955.00;;;;339980;28;96774;-93
2023/06/27 00:55:16;;;;;;;;;;;21.80;88.30;22.00;99958.00;;;;342066;28;82466;-93
2023/06/27 00:55:30;;;;;;;;;;;21.80;88.30;22.00;99963.00;;;;342638;28;96027;-93
2023/06/27 00:55:41;;;;;;;;;;;21.90;88.40;22.00;99963.00;;;;342026;28;83466;-93
2023/06/27 00:55:54;;;;;;;;;;;21.90;88.50;22.00;99969.00;;;;342779;28;94472;-93
2023/06/27 00:56:06;;;;;;;;;;;21.90;88.50;22.00;99960.00;;;;343509;28;82440;-94
2023/06/27 00:56:18;;;;;;;;;;;21.90;88.30;21.80;99954.00;;;;342635;28;95900;-93
2023/06/27 00:56:30;;;;;;;;;;;21.90;88.20;21.80;99966.00;;;;342147;28;83355;-93
2023/06/27 00:56:42;;;;;;;;;;;21.80;88.10;21.80;99964.00;;;;342691;28;96349;-93
2023/06/27 00:56:54;;;;;;;;;;;21.80;88.20;21.80;99959.00;;;;343462;28;83407;-93
2023/06/27 00:57:06;;;;;;;;;;;21.80;88.30;21.80;99953.00;;;;338650;28;96301;-94
2023/06/27 00:57:18;;;;;;;;;;;21.80;88.30;21.80;99964.00;;;;340551;28;83401;-93
2023/06/27 00:57:31;;;;;;;;;;;21.80;88.60;21.90;99960.00;;;;340000;28;96827;-94
2023/06/27 00:57:43;;;;;;;;;;;21.80;88.60;21.90;99959.00;;;;343241;28;83480;-93
2023/06/27 00:57:55;;;;;;;;;;;21.80;88.60;21.90;99956.00;;;;339944;28;94364;-94
2023/06/27 00:58:08;;;;;;;;;;;21.80;88.60;21.90;99962.00;;;;340725;28;83436;-93
2023/06/27 00:58:21;;;;;;;;;;;21.80;88.40;21.90;99965.00;;;;341189;28;96851;-94
2023/06/27 00:58:33;;;;;;;;;;;21.80;88.50;21.90;99963.00;;;;340774;28;82361;-93
2023/06/27 00:58:45;;;;;;;;;;;21.80;88.30;21.90;99962.00;;;;341364;28;94610;-93
2023/06/27 00:58:59;;;;;;;;;;;21.80;88.30;21.80;99965.00;;;;343365;28;83408;-93
2023/06/27 00:59:11;;;;;;;;;;;21.80;88.30;21.90;99953.00;;;;342761;28;95691;-93
2023/06/27 00:59:22;;;;;;;;;;;21.80;88.30;21.90;99968.00;;;;341994;28;83448;-94
2023/06/27 00:59:34;;;;;;;;;;;21.80;88.10;21.90;99965.00;;;;339985;28;96913;-94
2023/06/27 00:59:47;;;;;;;;;;;21.80;88.10;21.90;99962.00;;;;342165;28;83332;-93
2023/06/27 00:59:58;;;;;;;;;;;21.80;88.10;21.90;99963.00;;;;340087;28;95712;-94
2023/06/27 01:00:15;;;;;;;;;;;21.80;88.10;21.90;99968.00;;;;342208;28;82443;-93
2023/06/27 01:00:27;;;;;;;;;;;21.80;88.10;21.90;99968.00;;;;339978;28;96597;-93
2023/06/27 01:00:39;;;;;;;;;;;21.80;88.20;21.90;99964.00;;;;343549;28;82471;-93
2023/06/27 01:00:51;;;;;;;;;;;21.80;88.10;22.00;99952.00;;;;339992;28;96951;-93
2023/06/27 01:01:04;;;;;;;;;;;21.80;88.20;21.90;99961.00;;;;339369;28;83574;-93
2023/06/27 01:01:16;;;;;;;;;;;21.80;88.40;21.90;99956.00;;;;340045;28;96058;-93
2023/06/27 01:01:29;;;;;;;;;;;21.80;88.40;22.00;99958.00;;;;343463;28;83417;-93
2023/06/27 01:01:41;;;;;;;;;;;21.80;88.30;21.90;99963.00;;;;339926;28;96895;-93
2023/06/27 01:01:53;;;;;;;;;;;21.80;88.40;21.80;99958.00;;;;342186;28;83386;-93
2023/06/27 01:02:04;;;;;;;;;;;21.80;88.60;21.80;99963.00;;;;342741;28;95117;-93